createdAt,value
2024-02-17T00:00:19.602Z,8.82
2024-02-17T00:02:49.664Z,8.70
2024-02-17T00:05:22.462Z,9.57
2024-02-17T00:07:54.168Z,8.98
2024-02-17T00:10:26.218Z,8.65
2024-02-17T00:12:56.340Z,8.15
2024-02-17T00:15:26.449Z,8.82
2024-02-17T00:17:56.537Z,8.52
2024-02-17T00:20:29.379Z,8.02
2024-02-17T00:22:59.390Z,8.07
2024-02-17T00:25:29.402Z,7.93
2024-02-17T00:27:59.360Z,8.70
2024-02-17T00:30:29.408Z,7.22
2024-02-17T00:32:59.481Z,7.22
2024-02-17T00:35:32.204Z,6.38
2024-02-17T00:38:02.975Z,6.40
2024-02-17T00:40:32.904Z,5.60
2024-02-17T00:43:02.893Z,5.30
2024-02-17T00:45:32.965Z,5.20
2024-02-17T00:48:03.146Z,4.75
2024-02-17T00:50:36.078Z,4.35
2024-02-17T00:53:06.107Z,4.03
2024-02-17T00:55:36.131Z,3.35
2024-02-17T00:58:06.199Z,3.28
2024-02-17T01:00:36.462Z,3.15
2024-02-17T01:03:11.399Z,2.67
2024-02-17T01:05:45.599Z,2.80
2024-02-17T01:08:21.880Z,2.40
2024-02-17T01:11:09.031Z,2.08
2024-02-17T01:13:47.238Z,2.20
2024-02-17T01:16:35.011Z,1.90
2024-02-17T01:19:06.603Z,1.50
2024-02-17T01:21:43.452Z,1.40
2024-02-17T01:24:30.651Z,1.58
2024-02-17T01:27:01.786Z,1.30
2024-02-17T01:29:35.230Z,1.13
2024-02-17T01:32:18.189Z,1.50
2024-02-17T01:34:48.794Z,1.48
2024-02-17T01:37:22.899Z,1.38
2024-02-17T01:39:54.713Z,1.38
2024-02-17T01:42:26.937Z,1.30
2024-02-17T01:45:06.307Z,1.77
2024-02-17T01:47:49.522Z,1.30
2024-02-17T01:50:38.887Z,1.30
2024-02-17T01:53:31.374Z,1.20
2024-02-17T01:56:03.190Z,2.50
2024-02-17T01:58:35.876Z,2.20
2024-02-17T02:01:21.476Z,3.38
2024-02-17T02:04:11.493Z,3.65
2024-02-17T02:06:55.450Z,4.63
2024-02-17T02:09:48.369Z,4.95
2024-02-17T02:12:19.452Z,6.60
2024-02-17T02:15:06.159Z,6.57
2024-02-17T02:17:37.936Z,6.93
2024-02-17T02:20:09.933Z,6.93
2024-02-17T02:22:40.491Z,7.80
2024-02-17T02:25:27.418Z,9.02
2024-02-17T02:28:01.180Z,10.10
2024-02-17T02:30:31.351Z,10.27
2024-02-17T02:33:02.258Z,10.27
2024-02-17T02:35:32.695Z,11.45
2024-02-17T02:38:03.530Z,12.05
2024-02-17T02:40:33.811Z,11.60
2024-02-17T02:43:06.766Z,12.00
2024-02-17T02:45:38.787Z,11.93
2024-02-17T02:48:09.965Z,13.18
2024-02-17T02:50:40.548Z,12.85
2024-02-17T02:53:11.658Z,13.43
2024-02-17T02:55:41.678Z,13.20
2024-02-17T02:58:14.380Z,13.27
2024-02-17T03:00:44.518Z,13.38
2024-02-17T03:03:14.943Z,14.98
2024-02-17T03:05:45.137Z,14.65
2024-02-17T03:08:15.267Z,15.35
2024-02-17T03:10:45.363Z,13.95
2024-02-17T03:13:18.831Z,15.75
2024-02-17T03:15:49.618Z,16.23
2024-02-17T03:18:20.214Z,15.85
2024-02-17T03:20:50.398Z,16.70
2024-02-17T03:23:20.586Z,18.35
2024-02-17T03:25:50.622Z,17.58
2024-02-17T03:28:23.347Z,17.88
2024-02-17T03:30:53.525Z,17.70
2024-02-17T03:33:24.005Z,17.17
2024-02-17T03:35:54.276Z,15.55
2024-02-17T03:38:24.510Z,14.25
2024-02-17T03:40:54.542Z,13.82
2024-02-17T03:43:27.442Z,14.88
2024-02-17T03:45:57.844Z,14.25
2024-02-17T03:48:28.492Z,15.95
2024-02-17T03:50:58.955Z,17.23
2024-02-17T03:53:29.037Z,18.85
2024-02-17T03:55:59.102Z,19.95
2024-02-17T03:58:31.797Z,20.88
2024-02-17T04:01:01.923Z,21.40
2024-02-17T04:03:32.738Z,21.60
2024-02-17T04:06:02.863Z,21.65
2024-02-17T04:08:32.975Z,22.13
2024-02-17T04:11:03.102Z,21.50
2024-02-17T04:13:35.790Z,21.52
2024-02-17T04:16:06.004Z,22.38
2024-02-17T04:18:36.231Z,21.60
2024-02-17T04:21:06.961Z,22.38
2024-02-17T04:23:37.331Z,23.83
2024-02-17T04:26:11.013Z,22.25
2024-02-17T04:28:44.000Z,22.42
2024-02-17T04:31:14.093Z,22.25
2024-02-17T04:33:44.430Z,21.85
2024-02-17T04:36:14.586Z,23.35
2024-02-17T04:38:44.753Z,23.15
2024-02-17T04:41:14.770Z,23.15
2024-02-17T04:43:48.790Z,24.05
2024-02-17T04:46:18.991Z,26.73
2024-02-17T04:48:49.045Z,24.23
2024-02-17T04:51:19.029Z,24.13
2024-02-17T04:53:49.391Z,24.90
2024-02-17T04:56:19.490Z,25.33
2024-02-17T04:58:51.989Z,25.83
2024-02-17T05:01:24.377Z,26.50
2024-02-17T05:03:54.517Z,25.23
2024-02-17T05:06:24.564Z,23.70
2024-02-17T05:08:54.550Z,26.20
2024-02-17T05:11:24.564Z,26.27
2024-02-17T05:13:57.535Z,25.25
2024-02-17T05:16:27.534Z,25.00
2024-02-17T05:18:57.610Z,23.92
2024-02-17T05:21:27.700Z,25.83
2024-02-17T05:23:57.671Z,25.38
2024-02-17T05:26:27.633Z,26.08
2024-02-17T05:29:00.124Z,25.05
2024-02-17T05:31:32.056Z,24.92
2024-02-17T05:34:02.184Z,25.27
2024-02-17T05:36:33.227Z,23.85
2024-02-17T05:39:03.498Z,24.63
2024-02-17T05:41:33.463Z,25.67
2024-02-17T05:44:06.106Z,24.10
2024-02-17T05:46:36.208Z,24.67
2024-02-17T05:49:06.263Z,24.52
2024-02-17T05:51:36.484Z,24.48
2024-02-17T05:54:06.667Z,24.65
2024-02-17T05:56:36.625Z,24.25
2024-02-17T05:59:09.151Z,24.33
2024-02-17T06:01:39.169Z,24.17
2024-02-17T06:04:09.222Z,26.45
2024-02-17T06:06:39.676Z,25.85
2024-02-17T06:09:09.910Z,25.50
2024-02-17T06:11:39.995Z,26.20
2024-02-17T06:14:12.555Z,25.85
2024-02-17T06:16:42.588Z,27.55
2024-02-17T06:19:25.245Z,26.45
2024-02-17T06:21:55.336Z,27.20
2024-02-17T06:24:25.320Z,27.25
2024-02-17T06:26:55.996Z,25.50
2024-02-17T06:29:28.614Z,25.60
2024-02-17T06:31:58.620Z,26.45
2024-02-17T06:34:28.691Z,26.13
2024-02-17T06:36:58.740Z,25.77
2024-02-17T06:39:29.014Z,26.20
2024-02-17T06:41:59.069Z,26.40
2024-02-17T06:44:31.762Z,26.48
2024-02-17T06:47:01.754Z,25.67
2024-02-17T06:49:31.755Z,25.75
2024-02-17T06:52:01.705Z,24.98
2024-02-17T06:54:31.698Z,24.13
2024-02-17T06:56:59.216Z,25.05
2024-02-17T06:59:31.825Z,24.15
2024-02-17T07:02:02.077Z,25.05
2024-02-17T07:04:32.205Z,26.05
2024-02-17T07:07:02.406Z,24.38
2024-02-17T07:09:32.840Z,23.90
2024-02-17T07:12:02.889Z,22.88
2024-02-17T07:14:35.492Z,24.48
2024-02-17T07:17:05.507Z,20.88
2024-02-17T07:19:35.517Z,19.92
2024-02-17T07:22:09.566Z,18.65
2024-02-17T07:24:39.560Z,19.23
2024-02-17T07:27:09.645Z,18.42
2024-02-17T07:29:43.413Z,18.70
2024-02-17T07:32:14.761Z,18.90
2024-02-17T07:34:45.642Z,16.83
2024-02-17T07:37:15.725Z,17.48
2024-02-17T07:39:46.859Z,17.00
2024-02-17T07:42:17.229Z,16.67
2024-02-17T07:44:49.872Z,17.85
2024-02-17T07:47:19.907Z,17.50
2024-02-17T07:49:49.945Z,16.40
2024-02-17T07:52:19.965Z,16.85
2024-02-17T07:54:49.983Z,16.83
2024-02-17T07:57:19.980Z,15.73
2024-02-17T07:59:52.601Z,16.83
2024-02-17T08:02:22.555Z,16.00
2024-02-17T08:04:54.274Z,16.90
2024-02-17T08:07:24.302Z,16.15
2024-02-17T08:09:54.368Z,16.30
2024-02-17T08:12:24.817Z,17.20
2024-02-17T08:14:58.300Z,16.17
2024-02-17T08:17:28.462Z,17.02
2024-02-17T08:20:00.245Z,16.80
2024-02-17T08:22:32.198Z,17.48
2024-02-17T08:25:02.492Z,17.40
2024-02-17T08:27:32.702Z,16.95
2024-02-17T08:30:05.412Z,16.63
2024-02-17T08:32:36.107Z,16.45
2024-02-17T08:35:06.934Z,16.02
2024-02-17T08:37:37.041Z,16.45
2024-02-17T08:40:08.357Z,15.02
2024-02-17T08:42:38.536Z,14.73
2024-02-17T08:45:11.972Z,15.18
2024-02-17T08:47:42.169Z,14.50
2024-02-17T08:50:12.881Z,14.32
2024-02-17T08:52:42.938Z,15.55
2024-02-17T08:55:12.881Z,15.25
2024-02-17T08:57:42.868Z,14.52
2024-02-17T09:00:17.078Z,13.23
2024-02-17T09:02:47.795Z,13.23
2024-02-17T09:05:18.272Z,13.68
2024-02-17T09:07:48.265Z,13.57
2024-02-17T09:10:18.972Z,14.25
2024-02-17T09:12:49.127Z,15.60
2024-02-17T09:15:21.840Z,14.75
2024-02-17T09:17:52.088Z,14.45
2024-02-17T09:20:22.468Z,14.13
2024-02-17T09:22:52.445Z,13.82
2024-02-17T09:25:22.430Z,14.68
2024-02-17T09:27:52.399Z,14.23
2024-02-17T09:30:25.008Z,14.32
2024-02-17T09:32:55.197Z,15.07
2024-02-17T09:35:25.411Z,15.20
2024-02-17T09:37:55.341Z,14.73
2024-02-17T09:40:25.738Z,13.65
2024-02-17T09:42:55.857Z,13.70
2024-02-17T09:45:28.793Z,14.18
2024-02-17T09:47:59.857Z,15.10
2024-02-17T09:50:32.192Z,14.35
2024-02-17T09:53:03.216Z,13.70
2024-02-17T09:55:37.215Z,14.35
2024-02-17T09:58:07.911Z,13.48
2024-02-17T10:00:40.576Z,11.68
2024-02-17T10:03:11.529Z,11.10
2024-02-17T10:05:41.673Z,10.95
2024-02-17T10:08:11.943Z,11.18
2024-02-17T10:10:41.919Z,10.23
2024-02-17T10:13:18.906Z,11.65
2024-02-17T10:15:51.578Z,12.70
2024-02-17T10:18:23.865Z,13.93
2024-02-17T10:20:58.115Z,11.93
2024-02-17T10:23:28.979Z,12.25
2024-02-17T10:26:01.844Z,11.95
2024-02-17T10:28:32.136Z,12.77
2024-02-17T10:31:06.877Z,12.07
2024-02-17T10:33:37.090Z,12.57
2024-02-17T10:36:09.195Z,11.25
2024-02-17T10:38:39.454Z,11.50
2024-02-17T10:41:10.219Z,13.05
2024-02-17T10:43:44.244Z,11.82
2024-02-17T10:46:23.882Z,10.25
2024-02-17T10:49:02.311Z,10.68
2024-02-17T10:51:33.511Z,11.45
2024-02-17T10:54:04.684Z,11.57
2024-02-17T10:56:36.862Z,10.85
2024-02-17T10:59:07.635Z,10.75
2024-02-17T11:01:40.913Z,12.82
2024-02-17T11:04:12.070Z,11.68
2024-02-17T11:06:43.358Z,13.40
2024-02-17T11:09:14.135Z,12.13
2024-02-17T11:11:44.150Z,13.15
2024-02-17T11:14:42.923Z,12.63
2024-02-17T11:17:15.658Z,11.55
2024-02-17T11:19:51.598Z,10.80
2024-02-17T11:22:30.017Z,11.25
2024-02-17T11:25:02.174Z,9.38
2024-02-17T11:27:35.433Z,8.57
2024-02-17T11:30:08.804Z,9.70
2024-02-17T11:32:43.789Z,9.32
2024-02-17T11:35:18.132Z,9.27
2024-02-17T11:40:22.413Z,9.25
2024-02-17T11:42:55.645Z,9.27
2024-02-17T11:45:27.682Z,8.32
2024-02-17T11:48:00.360Z,7.63
2024-02-17T11:50:30.547Z,7.45
2024-02-17T11:53:03.993Z,7.20
2024-02-17T11:55:34.444Z,7.60
2024-02-17T11:58:10.339Z,6.90
2024-02-17T12:00:42.741Z,6.40
2024-02-17T12:03:16.327Z,7.20
2024-02-17T12:05:47.189Z,7.55
2024-02-17T12:08:18.091Z,6.53
2024-02-17T12:10:50.307Z,7.30
2024-02-17T12:13:21.125Z,7.05
2024-02-17T12:15:51.423Z,6.32
2024-02-17T12:18:26.410Z,6.53
2024-02-17T12:20:56.746Z,6.70
2024-02-17T12:23:26.988Z,6.25
2024-02-17T12:25:57.944Z,6.43
2024-02-17T12:28:28.984Z,7.63
2024-02-17T12:30:59.696Z,9.18
2024-02-17T12:33:32.403Z,9.27
2024-02-17T12:36:02.571Z,8.38
2024-02-17T12:38:32.611Z,8.77
2024-02-17T12:41:05.148Z,9.00
2024-02-17T12:43:41.317Z,8.45
2024-02-17T12:46:23.320Z,8.32
2024-02-17T12:48:57.176Z,8.35
2024-02-17T12:51:30.251Z,6.13
2024-02-17T12:54:01.833Z,5.93
2024-02-17T12:56:31.905Z,6.78
2024-02-17T12:59:02.075Z,4.35
2024-02-17T13:01:32.097Z,4.70
2024-02-17T13:04:04.660Z,4.07
2024-02-17T13:06:34.747Z,4.35
2024-02-17T13:09:04.824Z,3.47
2024-02-17T13:11:36.084Z,3.83
2024-02-17T13:14:06.228Z,3.30
2024-02-17T13:16:38.119Z,3.47
2024-02-17T13:19:10.857Z,3.17
2024-02-17T13:21:41.224Z,3.40
2024-02-17T13:24:14.121Z,3.40
2024-02-17T13:26:44.239Z,3.42
2024-02-17T13:29:14.161Z,3.00
2024-02-17T13:31:46.661Z,3.10
2024-02-17T13:34:19.392Z,3.25
2024-02-17T13:36:49.700Z,3.55
2024-02-17T13:39:19.693Z,3.72
2024-02-17T13:41:49.708Z,3.67
2024-02-17T13:44:20.981Z,3.20
2024-02-17T13:46:51.418Z,3.70
2024-02-17T13:49:26.934Z,3.50
2024-02-17T13:51:59.841Z,3.50
2024-02-17T13:54:30.038Z,3.40
2024-02-17T13:57:00.155Z,3.75
2024-02-17T13:59:30.151Z,2.85
2024-02-17T14:02:00.441Z,2.78
2024-02-17T14:04:36.518Z,2.70
2024-02-17T14:07:08.595Z,2.53
2024-02-17T14:09:40.322Z,2.80
2024-02-17T14:12:12.913Z,3.25
2024-02-17T14:14:47.327Z,3.65
2024-02-17T14:17:19.464Z,10.60
2024-02-17T14:19:53.105Z,8.55
2024-02-17T14:22:25.146Z,6.50
2024-02-17T14:24:56.968Z,5.38
2024-02-17T14:27:28.173Z,3.42
2024-02-17T14:29:59.526Z,3.83
2024-02-17T14:32:31.180Z,3.63
2024-02-17T14:35:05.102Z,3.20
2024-02-17T14:37:37.157Z,3.13
2024-02-17T14:40:09.613Z,3.25
2024-02-17T14:42:45.390Z,3.05
2024-02-17T14:45:18.001Z,3.45
2024-02-17T14:47:52.880Z,3.33
2024-02-17T14:50:27.163Z,3.35
2024-02-17T14:52:58.800Z,2.80
2024-02-17T14:55:30.097Z,2.70
2024-02-17T14:58:01.474Z,2.35
2024-02-17T15:00:32.641Z,2.78
2024-02-17T15:03:04.348Z,2.50
2024-02-17T15:05:39.260Z,3.17
2024-02-17T15:08:12.059Z,2.40
2024-02-17T15:10:43.427Z,3.72
2024-02-17T15:13:14.813Z,4.53
2024-02-17T15:15:50.339Z,3.67
2024-02-17T15:18:26.582Z,3.53
2024-02-17T15:21:00.759Z,4.00
2024-02-17T15:23:33.101Z,4.00
2024-02-17T15:26:04.629Z,5.10
2024-02-17T15:28:35.961Z,5.28
2024-02-17T15:31:07.610Z,3.85
2024-02-17T15:33:39.220Z,4.18
2024-02-17T15:36:18.210Z,2.92
2024-02-17T15:38:49.410Z,2.60
2024-02-17T15:41:20.826Z,2.80
2024-02-17T15:43:51.998Z,2.70
2024-02-17T15:46:23.717Z,2.70
2024-02-17T15:48:55.651Z,2.55
2024-02-17T15:51:29.398Z,2.70
2024-02-17T15:56:32.275Z,3.72
2024-02-17T15:59:04.279Z,3.42
2024-02-17T16:01:35.693Z,5.80
2024-02-17T16:04:06.754Z,3.45
2024-02-17T16:06:41.036Z,3.10
2024-02-17T16:09:12.581Z,4.43
2024-02-17T16:11:43.842Z,5.15
2024-02-17T16:14:17.400Z,4.80
2024-02-17T16:16:48.175Z,4.82
2024-02-17T16:19:18.968Z,4.20
2024-02-17T16:21:53.756Z,4.30
2024-02-17T16:24:24.644Z,4.22
2024-02-17T16:26:55.958Z,3.90
2024-02-17T16:29:26.435Z,4.20
2024-02-17T16:32:01.168Z,3.80
2024-02-17T16:34:33.035Z,4.35
2024-02-17T16:37:07.081Z,3.72
2024-02-17T16:39:37.777Z,4.28
2024-02-17T16:42:09.200Z,4.15
2024-02-17T16:44:40.034Z,3.83
2024-02-17T16:47:12.989Z,4.05
2024-02-17T16:49:44.725Z,3.88
2024-02-17T16:52:18.423Z,4.43
2024-02-17T16:54:49.341Z,4.32
2024-02-17T16:57:19.468Z,4.38
2024-02-17T16:59:49.436Z,5.13
2024-02-17T17:02:20.183Z,5.53
2024-02-17T17:04:50.892Z,5.60
2024-02-17T17:07:23.559Z,5.55
2024-02-17T17:09:53.781Z,5.53
2024-02-17T17:12:23.803Z,5.72
2024-02-17T17:14:53.806Z,6.22
2024-02-17T17:17:23.928Z,5.55
2024-02-17T17:19:55.878Z,6.07
2024-02-17T17:22:39.563Z,5.82
2024-02-17T17:25:14.440Z,6.25
2024-02-17T17:27:44.863Z,7.10
2024-02-17T17:30:16.278Z,7.32
2024-02-17T17:32:48.474Z,7.10
2024-02-17T17:35:18.962Z,5.65
2024-02-17T17:37:51.774Z,5.68
2024-02-17T17:40:21.795Z,5.65
2024-02-17T17:42:56.638Z,5.40
2024-02-17T17:45:30.455Z,4.95
2024-02-17T17:48:00.721Z,7.07
2024-02-17T17:50:32.504Z,16.40
2024-02-17T17:53:06.535Z,13.35
2024-02-17T17:55:36.768Z,19.13
2024-02-17T17:58:07.947Z,17.65
2024-02-17T18:00:38.029Z,9.93
2024-02-17T18:03:08.138Z,7.50
2024-02-17T18:05:39.097Z,6.68
2024-02-17T18:08:11.815Z,5.93
2024-02-17T18:10:41.830Z,6.82
2024-02-17T18:13:11.884Z,6.22
2024-02-17T18:15:41.919Z,6.53
2024-02-17T18:18:12.279Z,7.07
2024-02-17T18:20:42.227Z,6.82
2024-02-17T18:23:21.320Z,7.07
2024-02-17T18:25:51.778Z,6.95
2024-02-17T18:28:21.777Z,6.80
2024-02-17T18:30:51.830Z,6.82
2024-02-17T18:33:22.979Z,7.75
2024-02-17T18:35:53.059Z,7.32
2024-02-17T18:38:26.870Z,7.60
2024-02-17T18:40:56.903Z,7.97
2024-02-17T18:43:26.938Z,7.63
2024-02-17T18:45:56.948Z,7.70
2024-02-17T18:48:27.166Z,7.10
2024-02-17T18:50:57.225Z,6.90
2024-02-17T18:53:29.909Z,6.35
2024-02-17T18:55:59.954Z,5.78
2024-02-17T18:58:29.926Z,6.10
2024-02-17T19:01:00.655Z,5.82
2024-02-17T19:03:31.037Z,5.60
2024-02-17T19:06:01.173Z,6.57
2024-02-17T19:08:33.757Z,6.30
2024-02-17T19:11:03.897Z,7.20
2024-02-17T19:13:39.621Z,6.53
2024-02-17T19:16:11.053Z,7.05
2024-02-17T19:18:41.644Z,6.78
2024-02-17T19:21:12.289Z,6.88
2024-02-17T19:23:45.014Z,6.18
2024-02-17T19:26:15.040Z,6.40
2024-02-17T19:28:45.075Z,6.22
2024-02-17T19:31:15.037Z,7.30
2024-02-17T19:33:46.879Z,7.97
2024-02-17T19:36:17.082Z,7.30
2024-02-17T19:38:50.183Z,7.13
2024-02-17T19:41:20.403Z,7.85
2024-02-17T19:43:50.917Z,7.95
2024-02-17T19:46:21.028Z,7.60
2024-02-17T19:48:52.155Z,7.82
2024-02-17T19:51:22.359Z,8.60
2024-02-17T19:53:55.080Z,8.05
2024-02-17T19:56:25.100Z,8.20
2024-02-17T19:58:55.059Z,9.27
2024-02-17T20:01:25.760Z,9.43
2024-02-17T20:03:56.657Z,8.38
2024-02-17T20:06:28.013Z,9.40
2024-02-17T20:09:01.015Z,7.20
2024-02-17T20:11:31.712Z,8.77
2024-02-17T20:14:01.776Z,8.43
2024-02-17T20:16:31.841Z,8.13
2024-02-17T20:19:01.948Z,7.47
2024-02-17T20:21:36.640Z,8.30
2024-02-17T20:24:09.959Z,8.35
2024-02-17T20:26:39.963Z,9.73
2024-02-17T20:29:09.889Z,9.80
2024-02-17T20:31:39.881Z,9.80
2024-02-17T20:34:10.030Z,10.05
2024-02-17T20:36:40.088Z,9.25
2024-02-17T20:39:14.054Z,10.02
2024-02-17T20:41:48.259Z,10.07
2024-02-17T20:44:21.263Z,10.25
2024-02-17T20:46:51.683Z,11.60
2024-02-17T20:49:22.062Z,11.23
2024-02-17T20:51:52.209Z,10.80
2024-02-17T20:54:24.885Z,10.15
2024-02-17T20:56:55.004Z,11.40
2024-02-17T20:59:24.995Z,11.82
2024-02-17T21:01:55.005Z,11.15
2024-02-17T21:04:26.591Z,11.43
2024-02-17T21:06:56.791Z,12.20
2024-02-17T21:09:29.641Z,10.55
2024-02-17T21:11:59.835Z,10.23
2024-02-17T21:14:29.762Z,11.05
2024-02-17T21:16:59.741Z,10.35
2024-02-17T21:19:30.053Z,10.30
2024-02-17T21:22:00.776Z,10.75
2024-02-17T21:24:34.307Z,11.75
2024-02-17T21:27:04.558Z,9.93
2024-02-17T21:29:34.778Z,10.88
2024-02-17T21:32:04.747Z,10.95
2024-02-17T21:34:34.852Z,10.48
2024-02-17T21:37:04.969Z,11.00
2024-02-17T21:39:37.689Z,10.93
2024-02-17T21:42:08.373Z,10.80
2024-02-17T21:44:38.344Z,10.80
2024-02-17T21:47:08.568Z,11.02
2024-02-17T21:49:39.433Z,9.82
2024-02-17T21:52:09.855Z,10.93
2024-02-17T21:54:42.463Z,9.90
2024-02-17T21:57:13.730Z,10.07
2024-02-17T21:59:44.187Z,10.63
2024-02-17T22:02:14.455Z,11.05
2024-02-17T22:04:44.632Z,10.77
2024-02-17T22:07:15.033Z,10.43
2024-02-17T22:09:47.633Z,9.45
2024-02-17T22:12:17.790Z,8.88
2024-02-17T22:14:48.474Z,10.20
2024-02-17T22:17:18.634Z,9.70
2024-02-17T22:19:50.660Z,9.05
2024-02-17T22:22:21.780Z,10.13
2024-02-17T22:24:54.506Z,10.43
2024-02-17T22:27:25.488Z,9.98
2024-02-17T22:29:55.637Z,10.50
2024-02-17T22:32:25.644Z,10.35
2024-02-17T22:34:55.666Z,11.25
2024-02-17T22:37:25.791Z,10.80
2024-02-17T22:39:58.375Z,11.23
2024-02-17T22:42:28.593Z,11.45
2024-02-17T22:44:58.997Z,11.82
2024-02-17T22:47:29.090Z,11.52
2024-02-17T22:50:00.765Z,11.63
2024-02-17T22:52:30.840Z,11.85
2024-02-17T22:55:03.669Z,13.07
2024-02-17T22:57:34.565Z,12.25
2024-02-17T23:00:05.215Z,13.18
2024-02-17T23:02:35.189Z,12.23
2024-02-17T23:05:05.453Z,13.30
2024-02-17T23:07:35.404Z,13.25
2024-02-17T23:10:10.294Z,12.52
2024-02-17T23:12:41.728Z,13.20
2024-02-17T23:15:13.409Z,12.95
2024-02-17T23:17:43.698Z,12.63
2024-02-17T23:20:15.164Z,13.93
2024-02-17T23:22:45.309Z,13.73
2024-02-17T23:25:18.197Z,12.18
2024-02-17T23:27:48.436Z,11.63
2024-02-17T23:30:18.722Z,12.90
2024-02-17T23:32:48.869Z,12.57
2024-02-17T23:35:19.435Z,13.73
2024-02-17T23:37:49.624Z,13.07
2024-02-17T23:40:22.215Z,12.80
2024-02-17T23:42:52.215Z,12.88
2024-02-17T23:45:22.452Z,12.80
2024-02-17T23:47:52.462Z,13.10
2024-02-17T23:50:22.621Z,12.07
2024-02-17T23:52:52.867Z,11.60
2024-02-17T23:55:25.605Z,12.55
2024-02-17T23:57:55.742Z,12.15
